Overview Statistics Trail Chart Weather Telemetry Raw packets
 

This is the latest recevied weather packets stored in our database for station/object W6JCZ-13. If no packets are shown the sender has not sent any weather packets the latest 10 day(s).

<< 34 35 36 37 38 39 40 >>
Time Temp. Humidity Pressure Rain* Wind** Luminosity Snow
1788108016 20.56° C 62% 1011.6 hPa 0 mm - - -
1788107416 20.56° C 62% 1011.7 hPa 0 mm - - -
1788106816 20.56° C 63% 1011.8 hPa 0 mm - - -
1788106216 20° C 64% 1011.9 hPa 0 mm - - -
1788105616 19.44° C 66% 1011.9 hPa 0 mm - - -
1788105016 18.89° C 67% 1012 hPa 0 mm - - -
1788104416 18.33° C 70% 1012 hPa 0 mm - - -
1788103816 17.22° C 73% 1012 hPa 0 mm - - -
1788103216 16.67° C 74% 1011.9 hPa 0 mm - - -
1788102616 16.11° C 78% 1011.9 hPa 0 mm - - -
1788102016 15° C 80% 1011.8 hPa 0 mm - - -
1788101416 14.44° C 82% 1011.7 hPa 0 mm - - -
1788100816 13.89° C 84% 1011.7 hPa 0 mm - - -
1788100216 13.33° C 85% 1011.7 hPa 0 mm - - -
1788099616 12.78° C 86% 1011.4 hPa 0 mm - - -
1788099016 12.78° C 86% 1011.3 hPa 0 mm - - -
1788098416 12.22° C 86% 1011.1 hPa 0 mm - - -
1788097816 12.22° C 86% 1011.1 hPa 0 mm - - -
1788097216 12.22° C 86% 1010.9 hPa 0 mm - - -
1788096616 12.22° C 86% 1010.9 hPa 0 mm - - -
1788096016 12.22° C 85% 1010.8 hPa 0 mm - - -
1788095416 12.22° C 85% 1010.8 hPa 0 mm - - -
1788094816 12.22° C 84% 1010.7 hPa 0 mm - - -
1788094216 12.22° C 84% 1010.6 hPa 0 mm - - -
1788093616 12.22° C 83% 1010.5 hPa 0 mm - - -

* Rain latest hour (hover to see other rain measurements)
** Current wind speed in m/s (hover to see current wind gust speed)